Terminal Aerodrome Forecast
Issued by NWS

Current Version | Previous Version | Text Only | Print | Product List | Glossary On
Versions: 1 2 3 4 5 6 7 8 9 10 11 12 13 14 15
000
FTUS42 KMLB 212300
TAFSUA
TAF
KSUA 212326Z 2200/2224 VRB03KT P6SM SCT020 BKN035 BKN120
     FM220200 VRB03KT P6SM SCT025 SCT120 BKN250
     FM221500 10004KT P6SM SCT025 BKN200
     FM221800 09008KT P6SM VCTS SCT035CB SCT100 BKN150 PROB30
      2218/2221 3SM TSRA BKN025CB=

USA.gov is the U.S. government's official web portal to all federal, state and local government web resources and services.